Airfield :
LOGIN :

Register | Disclaimer

   EN    FR    IT 

 










Legend :    VFR   Marginal VFR   IFR   Intensive IFR   Very Intensive IFR
Visi :
Ceiling :
>= 8 km
>= 3000ft
5 to 8 km
1000 to 3000 ft
1500m to 5 km
500 to 1000 ft
800 to 1500m
200 to 500 ft
< 800m
< 200 ft
Symbols :   Thunderstorms  Fog  Heavy snow  Heavy precipitations  Wind > 20 kt
SIGMETs :     Misc.  Thunderstorms  Icing  Turbulence  Mountain Waves  Volcanic Ashes






- Airport Elevation : 17 ft
- IATA code : GRS


LIRS - Grosseto

CURRENT METAR :
  • 281555Z 04006KT CAVOK 12/10 Q1011 RMK BKN SCT070 BKN150 VIS MIN 9999 WIND THR03 05006KT WIND THR21 05005KT BLU

EXPIRED METARs :
  • 281455Z 04005KT CAVOK 13/11 Q1011 RMK BKN FEW070 BKN150 VIS MIN 9999 WIND THR03 06005KT WIND THR21 05004KT BLU
  • 281355Z 05006KT CAVOK 15/10 Q1012 RMK BKN SCT070 SCT150 VIS MIN 9999 WIND THR03 05007KT WIND THR21 06005KT BLU

TAF TAF LIRS
Valid from the 28 at 15:00 until the 29 at 00:00 UTC


281400Z 2815/2824 06008KT CAVOK
BECMG 2818/2820 06010G22KT
TEMPO 2819/2821 9999 BKN030



MET'MAP, your aeronautical weather chart ! - Copyright ORBIFLY December 2007 - Disclaimer

ORBIFLY MET'MAP TEAM :

Programming & Development : Alexandra Zaïnal
Concept & original design : Baudouin d'Aumeries
Assistance for programming : Marc-Olivier Méhu
Technical & hardware support : Manuel Goepfert

Contact : metmap@orbifly.com




SOURCES & CREDITS :

   NOAA